createdAt,value
2019-03-30T00:00:29.775Z,46.03
2019-03-30T00:02:59.327Z,43.73
2019-03-30T00:05:28.932Z,55.57
2019-03-30T00:07:58.797Z,53.73
2019-03-30T00:10:28.658Z,47.77
2019-03-30T00:12:58.347Z,41.93
2019-03-30T00:15:27.891Z,46.70
2019-03-30T00:17:57.478Z,43.20
2019-03-30T00:20:27.126Z,48.20
2019-03-30T00:22:56.715Z,42.07
2019-03-30T00:25:26.264Z,43.63
2019-03-30T00:27:55.942Z,41.97
2019-03-30T00:30:25.596Z,48.30
2019-03-30T00:32:55.136Z,48.03
2019-03-30T00:35:24.723Z,51.53
2019-03-30T00:37:54.593Z,52.20
2019-03-30T00:40:24.183Z,52.27
2019-03-30T00:42:53.644Z,55.10
2019-03-30T00:45:23.240Z,57.73
2019-03-30T00:47:52.983Z,52.07
2019-03-30T00:50:22.675Z,61.97
2019-03-30T00:52:52.681Z,56.47
2019-03-30T00:55:22.270Z,60.10
2019-03-30T00:57:51.854Z,64.93
2019-03-30T01:00:21.740Z,62.27
2019-03-30T01:02:51.334Z,60.93
2019-03-30T01:05:20.988Z,59.53
2019-03-30T01:07:50.532Z,65.77
2019-03-30T01:10:20.508Z,58.60
2019-03-30T01:12:50.082Z,57.80
2019-03-30T01:15:19.770Z,55.30
2019-03-30T01:17:49.389Z,60.80
2019-03-30T01:20:19.074Z,69.20
2019-03-30T01:22:49.004Z,61.20
2019-03-30T01:25:18.767Z,60.40
2019-03-30T01:27:48.278Z,68.33
2019-03-30T01:30:23.418Z,66.40
2019-03-30T01:32:49.575Z,71.67
2019-03-30T01:35:19.214Z,63.10
2019-03-30T01:37:49.190Z,66.20
2019-03-30T01:40:18.779Z,68.90
2019-03-30T01:42:48.395Z,64.33
2019-03-30T01:45:17.933Z,66.97
2019-03-30T01:47:47.481Z,61.63
2019-03-30T01:50:18.196Z,66.43
2019-03-30T01:52:47.720Z,72.30
2019-03-30T01:55:17.313Z,55.70
2019-03-30T01:57:47.208Z,64.33
2019-03-30T02:00:17.589Z,56.33
2019-03-30T02:02:47.374Z,62.20
2019-03-30T02:05:17.251Z,65.73
2019-03-30T02:07:47.145Z,59.50
2019-03-30T02:10:23.934Z,55.77
2019-03-30T02:12:53.887Z,53.40
2019-03-30T02:15:23.530Z,61.63
2019-03-30T02:17:53.113Z,62.37
2019-03-30T02:20:36.894Z,61.63
2019-03-30T02:23:06.596Z,60.20
2019-03-30T02:25:36.439Z,62.60
2019-03-30T02:28:07.083Z,61.13
2019-03-30T02:30:37.292Z,69.63
2019-03-30T02:33:07.040Z,54.77
2019-03-30T02:35:36.722Z,60.43
2019-03-30T02:38:06.370Z,62.67
2019-03-30T02:40:36.222Z,54.77
2019-03-30T02:43:05.840Z,58.00
2019-03-30T02:45:35.545Z,56.87
2019-03-30T02:48:05.356Z,55.80
2019-03-30T02:50:48.595Z,63.03
2019-03-30T02:53:06.220Z,59.87
2019-03-30T02:55:35.949Z,51.47
2019-03-30T02:58:05.601Z,59.70
2019-03-30T03:00:35.247Z,64.40
2019-03-30T03:03:05.054Z,56.43
2019-03-30T03:05:34.698Z,58.70
2019-03-30T03:08:04.240Z,56.10
2019-03-30T03:10:33.827Z,59.93
2019-03-30T03:13:03.295Z,70.77
2019-03-30T03:15:32.994Z,69.33
2019-03-30T03:18:02.555Z,72.77
2019-03-30T03:20:32.151Z,84.60
2019-03-30T03:23:01.741Z,73.07
2019-03-30T03:25:31.299Z,71.77
2019-03-30T03:28:00.852Z,78.40
2019-03-30T03:30:30.541Z,64.27
2019-03-30T03:33:00.199Z,61.13
2019-03-30T03:35:29.783Z,68.70
2019-03-30T03:37:59.638Z,60.33
2019-03-30T03:40:29.584Z,72.17
2019-03-30T03:42:59.383Z,59.30
2019-03-30T03:45:28.932Z,69.60
2019-03-30T03:47:58.527Z,69.57
2019-03-30T03:50:42.481Z,58.13
2019-03-30T03:53:14.059Z,62.33
2019-03-30T03:55:43.855Z,53.30
2019-03-30T03:58:15.162Z,74.50
2019-03-30T04:00:45.316Z,61.13
2019-03-30T04:03:17.797Z,62.17
2019-03-30T04:05:49.280Z,61.23
2019-03-30T04:08:19.133Z,64.80
2019-03-30T04:10:49.826Z,57.60
2019-03-30T04:13:19.439Z,58.40
2019-03-30T04:15:49.059Z,55.63
2019-03-30T04:18:19.418Z,62.50
2019-03-30T04:20:49.302Z,59.13
2019-03-30T04:23:19.124Z,59.23
2019-03-30T04:25:48.833Z,51.27
2019-03-30T04:28:18.429Z,66.50
2019-03-30T04:30:48.024Z,50.00
2019-03-30T04:33:17.974Z,47.40
2019-03-30T04:35:47.522Z,58.53
2019-03-30T04:38:17.477Z,51.13
2019-03-30T04:40:47.027Z,52.30
2019-03-30T04:43:16.576Z,44.63
2019-03-30T04:45:46.171Z,57.30
2019-03-30T04:48:15.748Z,54.83
2019-03-30T04:50:45.339Z,54.10
2019-03-30T04:53:14.886Z,52.10
2019-03-30T04:55:44.846Z,61.57
2019-03-30T04:58:14.488Z,53.17
2019-03-30T05:00:44.082Z,46.97
2019-03-30T05:03:13.729Z,48.53
2019-03-30T05:05:43.422Z,61.80
2019-03-30T05:08:13.227Z,47.37
2019-03-30T05:10:42.775Z,62.33
2019-03-30T05:13:12.518Z,60.53
2019-03-30T05:15:42.211Z,56.93
2019-03-30T05:18:11.762Z,54.13
2019-03-30T05:20:41.310Z,53.33
2019-03-30T05:23:11.313Z,49.03
2019-03-30T05:25:40.967Z,47.50
2019-03-30T05:28:10.609Z,49.57
2019-03-30T05:30:40.185Z,56.77
2019-03-30T05:33:09.835Z,58.13
2019-03-30T05:35:39.386Z,55.53
2019-03-30T05:38:09.395Z,48.73
2019-03-30T05:40:38.984Z,55.30
2019-03-30T05:43:08.622Z,47.10
2019-03-30T05:45:38.201Z,46.77
2019-03-30T05:48:07.789Z,47.17
2019-03-30T05:50:37.330Z,45.00
2019-03-30T05:53:06.962Z,44.87
2019-03-30T05:55:36.595Z,43.30
2019-03-30T05:58:06.189Z,43.50
2019-03-30T06:00:35.733Z,40.47
2019-03-30T06:03:05.384Z,43.60
2019-03-30T06:05:35.069Z,42.07
2019-03-30T06:08:04.665Z,44.33
2019-03-30T06:10:34.204Z,44.27
2019-03-30T06:13:03.803Z,46.07
2019-03-30T06:15:33.448Z,44.77
2019-03-30T06:18:03.053Z,43.80
2019-03-30T06:20:32.598Z,45.43
2019-03-30T06:23:02.143Z,45.47
2019-03-30T06:25:31.767Z,46.87
2019-03-30T06:28:01.638Z,46.30
2019-03-30T06:30:31.342Z,47.03
2019-03-30T06:33:00.904Z,48.97
2019-03-30T06:35:30.499Z,49.07
2019-03-30T06:38:00.052Z,48.60
2019-03-30T06:40:29.694Z,57.40
2019-03-30T06:42:59.633Z,53.87
2019-03-30T06:45:29.561Z,54.37
2019-03-30T06:47:59.127Z,50.90
2019-03-30T06:50:28.822Z,52.20
2019-03-30T06:52:58.884Z,52.83
2019-03-30T06:55:28.748Z,48.87
2019-03-30T06:57:58.347Z,48.13
2019-03-30T07:00:35.175Z,53.30
2019-03-30T07:03:06.850Z,52.37
2019-03-30T07:05:43.257Z,57.47
2019-03-30T07:08:14.667Z,61.40
2019-03-30T07:10:46.499Z,59.40
2019-03-30T07:13:16.923Z,59.87
2019-03-30T07:15:58.238Z,64.40
2019-03-30T07:18:28.035Z,66.70
2019-03-30T07:20:57.642Z,69.43
2019-03-30T07:23:27.136Z,63.00
2019-03-30T07:25:56.847Z,68.60
2019-03-30T07:28:26.407Z,70.23
2019-03-30T07:30:55.961Z,65.97
2019-03-30T07:33:25.893Z,68.57
2019-03-30T07:35:55.458Z,85.63
2019-03-30T07:38:25.079Z,83.30
2019-03-30T07:40:54.640Z,79.23
2019-03-30T07:43:24.200Z,75.93
2019-03-30T07:45:53.754Z,78.30
2019-03-30T07:48:23.311Z,71.63
2019-03-30T07:50:53.251Z,78.03
2019-03-30T07:53:26.691Z,79.37
2019-03-30T07:56:07.849Z,74.70
2019-03-30T07:58:25.898Z,78.67
2019-03-30T08:00:55.525Z,75.80
2019-03-30T08:03:25.082Z,77.27
2019-03-30T08:05:54.695Z,82.27
2019-03-30T08:08:24.602Z,84.07
2019-03-30T08:10:54.162Z,76.77
2019-03-30T08:13:23.725Z,80.27
2019-03-30T08:15:53.331Z,77.33
2019-03-30T08:18:23.207Z,78.00
2019-03-30T08:20:52.799Z,77.87
2019-03-30T08:23:22.359Z,75.30
2019-03-30T08:25:51.936Z,79.90
2019-03-30T08:28:21.527Z,83.87
2019-03-30T08:30:51.223Z,83.53
2019-03-30T08:33:20.829Z,84.70
2019-03-30T08:35:50.721Z,78.37
2019-03-30T08:38:20.274Z,80.20
2019-03-30T08:40:49.793Z,80.77
2019-03-30T08:43:19.351Z,86.63
2019-03-30T08:45:49.135Z,81.60
2019-03-30T08:48:18.560Z,85.83
2019-03-30T08:50:48.155Z,78.10
2019-03-30T08:53:17.758Z,89.03
2019-03-30T08:55:47.326Z,79.70
2019-03-30T08:58:16.891Z,88.47
2019-03-30T09:00:46.483Z,88.20
2019-03-30T09:03:16.106Z,87.43
2019-03-30T09:05:45.660Z,87.63
2019-03-30T09:08:15.267Z,78.97
2019-03-30T09:10:44.867Z,82.40
2019-03-30T09:13:14.540Z,81.00
2019-03-30T09:15:44.161Z,76.67
2019-03-30T09:18:13.719Z,87.27
2019-03-30T09:20:43.277Z,73.90
2019-03-30T09:23:12.957Z,75.53
2019-03-30T09:25:42.592Z,74.80
2019-03-30T09:28:12.186Z,70.30
2019-03-30T09:30:41.750Z,75.60
2019-03-30T09:33:11.343Z,70.97
2019-03-30T09:35:40.942Z,68.87
2019-03-30T09:38:10.579Z,77.77
2019-03-30T09:40:40.156Z,73.03
2019-03-30T09:43:09.720Z,73.97
2019-03-30T09:45:39.445Z,74.43
2019-03-30T09:48:09.013Z,71.97
2019-03-30T09:50:38.893Z,67.10
2019-03-30T09:53:08.459Z,73.30
2019-03-30T09:55:38.157Z,69.30
2019-03-30T09:58:07.709Z,69.17
2019-03-30T10:00:37.191Z,62.43
2019-03-30T10:03:06.806Z,64.20
2019-03-30T10:05:36.484Z,69.70
2019-03-30T10:08:06.101Z,70.20
2019-03-30T10:10:35.669Z,73.23
2019-03-30T10:13:05.374Z,63.57
2019-03-30T10:15:35.277Z,60.33
2019-03-30T10:18:04.985Z,59.03
2019-03-30T10:20:34.940Z,63.23
2019-03-30T10:23:04.520Z,60.17
2019-03-30T10:25:34.142Z,56.23
2019-03-30T10:28:03.705Z,59.13
2019-03-30T10:30:33.314Z,60.83
2019-03-30T10:33:02.973Z,55.70
2019-03-30T10:35:32.610Z,56.33
2019-03-30T10:38:02.238Z,60.50
2019-03-30T10:40:31.780Z,57.77
2019-03-30T10:43:01.369Z,55.20
2019-03-30T10:45:31.037Z,56.50
2019-03-30T10:48:00.635Z,62.17
2019-03-30T10:50:30.154Z,56.63
2019-03-30T10:52:59.769Z,59.80
2019-03-30T10:55:29.446Z,54.70
2019-03-30T10:57:59.410Z,60.47
2019-03-30T11:00:37.040Z,53.23
2019-03-30T11:03:06.598Z,56.07
2019-03-30T11:05:36.276Z,58.23
2019-03-30T11:08:06.060Z,56.17
2019-03-30T11:10:35.732Z,51.23
2019-03-30T11:13:05.342Z,56.73
2019-03-30T11:15:34.911Z,55.03
2019-03-30T11:18:04.478Z,57.07
2019-03-30T11:20:34.174Z,57.70
2019-03-30T11:23:03.812Z,62.83
2019-03-30T11:25:33.496Z,57.47
2019-03-30T11:28:03.153Z,54.50
2019-03-30T11:30:32.760Z,60.30
2019-03-30T11:33:02.427Z,58.67
2019-03-30T11:35:32.095Z,63.53
2019-03-30T11:38:01.655Z,58.00
2019-03-30T11:40:31.607Z,63.27
2019-03-30T11:43:01.197Z,58.50
2019-03-30T11:45:30.840Z,56.50
2019-03-30T11:48:00.789Z,54.60
2019-03-30T11:50:30.371Z,55.20
2019-03-30T11:53:00.324Z,54.07
2019-03-30T11:55:29.918Z,54.27
2019-03-30T11:57:59.581Z,58.50
2019-03-30T12:00:29.184Z,61.87
2019-03-30T12:02:58.746Z,58.60
2019-03-30T12:05:28.352Z,56.63
2019-03-30T12:07:58.039Z,53.97
2019-03-30T12:10:27.650Z,61.73
2019-03-30T12:12:57.333Z,53.70
2019-03-30T12:15:26.894Z,57.10
2019-03-30T12:17:56.486Z,53.23
2019-03-30T12:20:26.196Z,55.33
2019-03-30T12:22:55.856Z,55.40
2019-03-30T12:25:35.438Z,53.33
2019-03-30T12:27:56.733Z,55.07
2019-03-30T12:30:26.345Z,53.03
2019-03-30T12:32:55.963Z,56.10
2019-03-30T12:35:25.537Z,50.90
2019-03-30T12:37:55.095Z,50.80
2019-03-30T12:40:24.698Z,47.40
2019-03-30T12:42:54.357Z,52.07
2019-03-30T12:45:23.964Z,48.03
2019-03-30T12:47:53.504Z,51.87
2019-03-30T12:50:23.222Z,46.63
2019-03-30T12:52:52.812Z,53.47
2019-03-30T12:55:22.377Z,50.80
2019-03-30T12:57:52.376Z,49.50
2019-03-30T13:00:21.977Z,52.03
2019-03-30T13:02:52.464Z,51.87
2019-03-30T13:05:22.031Z,52.73
2019-03-30T13:07:51.985Z,50.70
2019-03-30T13:10:21.621Z,48.03
2019-03-30T13:12:51.480Z,55.77
2019-03-30T13:15:21.081Z,50.50
2019-03-30T13:17:50.641Z,50.07
2019-03-30T13:20:20.197Z,48.00
2019-03-30T13:22:49.798Z,50.23
2019-03-30T13:25:19.361Z,50.83
2019-03-30T13:27:48.950Z,46.93
2019-03-30T13:30:18.946Z,49.30
2019-03-30T13:32:48.550Z,49.80
2019-03-30T13:35:18.111Z,48.50
2019-03-30T13:37:47.897Z,46.90
2019-03-30T13:40:17.442Z,48.60
2019-03-30T13:42:47.002Z,48.57
2019-03-30T13:45:16.610Z,47.20
2019-03-30T13:47:46.214Z,46.30
2019-03-30T13:50:15.918Z,48.50
2019-03-30T13:52:45.486Z,49.17
2019-03-30T13:55:15.542Z,46.67
2019-03-30T13:57:45.145Z,46.50
2019-03-30T14:00:15.152Z,48.60
2019-03-30T14:02:44.717Z,48.97
2019-03-30T14:05:14.514Z,47.93
2019-03-30T14:07:44.041Z,49.23
2019-03-30T14:10:15.242Z,48.87
2019-03-30T14:12:44.845Z,47.80
2019-03-30T14:15:14.401Z,47.57
2019-03-30T14:17:44.063Z,48.50
2019-03-30T14:20:13.675Z,46.43
2019-03-30T14:22:43.287Z,51.13
2019-03-30T14:25:13.021Z,45.17
2019-03-30T14:27:42.683Z,47.50
2019-03-30T14:30:12.499Z,43.40
2019-03-30T14:32:42.060Z,49.00
2019-03-30T14:35:11.757Z,46.33
2019-03-30T14:37:41.360Z,52.37
2019-03-30T14:40:11.436Z,67.47
2019-03-30T14:42:41.039Z,65.00
2019-03-30T14:45:10.804Z,60.77
2019-03-30T14:47:40.388Z,70.13
2019-03-30T14:50:10.966Z,69.87
2019-03-30T14:52:40.681Z,73.47
2019-03-30T14:55:10.337Z,73.40
2019-03-30T14:57:39.897Z,64.20
2019-03-30T15:00:10.191Z,73.57
2019-03-30T15:02:39.742Z,79.40
2019-03-30T15:05:09.904Z,81.33
2019-03-30T15:07:39.505Z,78.90
2019-03-30T15:10:09.552Z,88.23
2019-03-30T15:12:39.207Z,93.60
2019-03-30T15:15:09.665Z,90.77
2019-03-30T15:17:40.981Z,101.13
2019-03-30T15:20:10.838Z,99.00
2019-03-30T15:22:40.508Z,113.33
2019-03-30T15:25:10.989Z,119.07
2019-03-30T15:27:40.685Z,118.07
2019-03-30T15:30:10.718Z,122.10
2019-03-30T15:32:40.679Z,129.03
2019-03-30T15:35:10.800Z,115.87
2019-03-30T15:37:40.399Z,119.23
2019-03-30T15:40:10.208Z,117.13
2019-03-30T15:42:40.801Z,121.40
2019-03-30T15:45:10.640Z,127.23
2019-03-30T15:47:40.276Z,126.57
2019-03-30T15:50:11.617Z,135.53
2019-03-30T15:52:41.180Z,126.10
2019-03-30T15:55:10.839Z,120.73
2019-03-30T15:57:40.542Z,125.93
2019-03-30T16:00:14.196Z,126.20
2019-03-30T16:02:43.702Z,129.57
2019-03-30T16:05:15.694Z,131.27
2019-03-30T16:07:45.041Z,125.80
2019-03-30T16:10:15.021Z,105.70
2019-03-30T16:12:44.580Z,108.10
2019-03-30T16:15:14.186Z,110.87
2019-03-30T16:17:43.743Z,87.97
2019-03-30T16:20:15.170Z,80.33
2019-03-30T16:22:44.894Z,81.53
2019-03-30T16:25:14.538Z,84.87
2019-03-30T16:27:44.089Z,75.53
2019-03-30T16:30:14.140Z,57.10
2019-03-30T16:32:43.697Z,55.63
2019-03-30T16:35:13.287Z,54.60
2019-03-30T16:37:42.841Z,50.40
2019-03-30T16:40:14.283Z,55.17
2019-03-30T16:42:43.769Z,57.07
2019-03-30T16:45:13.761Z,55.30
2019-03-30T16:47:43.354Z,61.70
2019-03-30T16:50:13.424Z,71.53
2019-03-30T16:52:43.112Z,79.50
2019-03-30T16:55:12.681Z,81.60
2019-03-30T16:57:43.936Z,74.33
2019-03-30T17:00:15.456Z,89.00
2019-03-30T17:02:45.015Z,83.20
2019-03-30T17:05:14.689Z,97.70
2019-03-30T17:07:44.604Z,100.97
2019-03-30T17:10:14.238Z,97.03
2019-03-30T17:12:44.280Z,92.47
2019-03-30T17:15:13.935Z,97.67
2019-03-30T17:17:43.492Z,103.80
2019-03-30T17:20:13.308Z,103.33
2019-03-30T17:22:42.898Z,95.13
2019-03-30T17:25:12.470Z,92.73
2019-03-30T17:27:56.689Z,81.50
2019-03-30T17:30:15.453Z,82.37
2019-03-30T17:32:45.047Z,93.00
2019-03-30T17:35:14.644Z,87.33
2019-03-30T17:37:44.234Z,78.03
2019-03-30T17:40:15.308Z,81.43
2019-03-30T17:42:44.866Z,85.97
2019-03-30T17:45:14.571Z,87.53
2019-03-30T17:47:44.127Z,83.10
2019-03-30T17:50:14.081Z,88.13
2019-03-30T17:52:43.666Z,93.73
2019-03-30T17:55:13.450Z,98.20
2019-03-30T17:57:43.151Z,100.30
2019-03-30T18:00:16.177Z,100.77
2019-03-30T18:02:45.772Z,103.40
2019-03-30T18:05:15.622Z,103.63
2019-03-30T18:07:45.175Z,102.20
2019-03-30T18:10:14.970Z,110.60
2019-03-30T18:12:44.554Z,95.43
2019-03-30T18:15:16.004Z,107.70
2019-03-30T18:17:45.583Z,101.33
2019-03-30T18:20:15.526Z,96.70
2019-03-30T18:22:45.089Z,111.27
2019-03-30T18:25:14.746Z,104.93
2019-03-30T18:27:44.379Z,118.97
2019-03-30T18:30:14.554Z,95.87
2019-03-30T18:32:44.352Z,94.30
2019-03-30T18:35:14.006Z,115.77
2019-03-30T18:37:43.919Z,111.13
2019-03-30T18:40:26.664Z,103.50
2019-03-30T18:42:56.705Z,100.67
2019-03-30T18:45:27.809Z,95.23
2019-03-30T18:48:11.207Z,103.43
2019-03-30T18:50:41.949Z,97.03
2019-03-30T18:53:12.231Z,104.03
2019-03-30T18:55:41.769Z,96.20
2019-03-30T18:58:11.358Z,98.10
2019-03-30T19:00:40.925Z,98.33
2019-03-30T19:03:10.566Z,106.77
2019-03-30T19:05:40.123Z,90.93
2019-03-30T19:08:09.674Z,98.70
2019-03-30T19:10:39.257Z,92.67
2019-03-30T19:13:08.818Z,94.43
2019-03-30T19:15:38.800Z,101.33
2019-03-30T19:18:08.461Z,83.73
2019-03-30T19:20:38.058Z,81.20
2019-03-30T19:23:07.605Z,84.73
2019-03-30T19:25:37.144Z,87.47
2019-03-30T19:28:07.803Z,89.43
2019-03-30T19:30:37.506Z,85.77
2019-03-30T19:33:07.091Z,74.73
2019-03-30T19:35:36.638Z,76.40
2019-03-30T19:38:06.218Z,94.23
2019-03-30T19:40:35.769Z,93.00
2019-03-30T19:43:05.370Z,80.40
2019-03-30T19:45:35.009Z,107.03
2019-03-30T19:48:04.719Z,112.10
2019-03-30T19:50:34.326Z,97.07
2019-03-30T19:53:03.834Z,97.43
2019-03-30T19:55:33.455Z,100.20
2019-03-30T19:58:03.071Z,116.23
2019-03-30T20:00:32.703Z,110.97
2019-03-30T20:03:02.333Z,118.77
2019-03-30T20:05:31.918Z,89.27
2019-03-30T20:08:12.166Z,92.57
2019-03-30T20:10:33.146Z,92.43
2019-03-30T20:13:03.064Z,95.83
2019-03-30T20:15:32.779Z,108.40
2019-03-30T20:18:02.412Z,101.73
2019-03-30T20:20:32.000Z,94.07
2019-03-30T20:23:01.551Z,85.10
2019-03-30T20:25:31.097Z,71.53
2019-03-30T20:28:00.690Z,75.47
2019-03-30T20:30:30.376Z,60.80
2019-03-30T20:33:00.278Z,65.70
2019-03-30T20:35:29.966Z,57.13
2019-03-30T20:37:59.856Z,63.23
2019-03-30T20:40:29.370Z,57.03
2019-03-30T20:42:58.914Z,49.73
2019-03-30T20:45:28.494Z,60.60
2019-03-30T20:47:58.045Z,46.50
2019-03-30T20:50:27.642Z,52.30
2019-03-30T20:52:57.193Z,55.43
2019-03-30T20:55:26.926Z,44.30
2019-03-30T20:57:56.679Z,58.53
2019-03-30T21:00:26.241Z,47.30
2019-03-30T21:02:55.714Z,44.93
2019-03-30T21:05:25.325Z,48.57
2019-03-30T21:07:54.921Z,46.13
2019-03-30T21:10:24.465Z,49.40
2019-03-30T21:12:54.022Z,39.83
2019-03-30T21:15:23.609Z,43.50
2019-03-30T21:17:53.149Z,49.70
2019-03-30T21:20:22.689Z,46.63
2019-03-30T21:22:52.222Z,40.10
2019-03-30T21:25:21.750Z,46.43
2019-03-30T21:27:51.416Z,40.07
2019-03-30T21:30:21.162Z,46.33
2019-03-30T21:32:50.721Z,41.30
2019-03-30T21:35:20.352Z,38.00
2019-03-30T21:37:49.909Z,46.17
2019-03-30T21:40:19.597Z,46.80
2019-03-30T21:42:49.184Z,46.20
2019-03-30T21:45:18.842Z,35.43
2019-03-30T21:47:48.538Z,35.27
2019-03-30T21:50:18.084Z,39.73
2019-03-30T21:52:47.643Z,33.23
2019-03-30T21:55:17.226Z,35.60
2019-03-30T21:57:46.779Z,43.80
2019-03-30T22:00:29.702Z,39.57
2019-03-30T22:02:59.250Z,33.90
2019-03-30T22:05:28.837Z,38.00
2019-03-30T22:07:59.085Z,34.90
2019-03-30T22:10:29.255Z,29.83
2019-03-30T22:12:58.897Z,33.43
2019-03-30T22:15:29.170Z,36.63
2019-03-30T22:17:58.889Z,30.60
2019-03-30T22:20:28.554Z,34.60
2019-03-30T22:22:58.095Z,36.10
2019-03-30T22:25:27.694Z,35.87
2019-03-30T22:27:57.293Z,41.87
2019-03-30T22:30:26.886Z,38.40
2019-03-30T22:32:56.426Z,29.90
2019-03-30T22:35:25.964Z,33.37
2019-03-30T22:37:55.556Z,39.83
2019-03-30T22:40:25.148Z,34.23
2019-03-30T22:42:54.801Z,33.43
2019-03-30T22:45:24.383Z,34.20
2019-03-30T22:47:53.934Z,28.80
2019-03-30T22:50:23.924Z,30.07
2019-03-30T22:52:53.469Z,30.17
2019-03-30T22:55:23.062Z,34.13
2019-03-30T22:57:52.658Z,43.77
2019-03-30T23:00:39.990Z,31.73
2019-03-30T23:03:09.787Z,39.37
2019-03-30T23:05:39.430Z,32.10
2019-03-30T23:08:08.969Z,32.73
2019-03-30T23:10:38.901Z,45.60
2019-03-30T23:13:08.586Z,32.13
2019-03-30T23:15:38.062Z,33.60
2019-03-30T23:18:07.609Z,32.50
2019-03-30T23:20:37.197Z,31.00
2019-03-30T23:23:06.783Z,28.33
2019-03-30T23:25:36.594Z,33.80
2019-03-30T23:28:06.198Z,27.43
2019-03-30T23:30:35.831Z,28.83
2019-03-30T23:33:05.535Z,27.30
2019-03-30T23:35:35.347Z,28.30
2019-03-30T23:38:05.018Z,26.63
2019-03-30T23:40:34.612Z,25.17
2019-03-30T23:43:04.160Z,24.27
2019-03-30T23:45:33.745Z,24.23
2019-03-30T23:48:03.296Z,23.17
2019-03-30T23:50:32.973Z,25.70
2019-03-30T23:53:02.521Z,21.27
2019-03-30T23:55:32.205Z,22.73
2019-03-30T23:58:01.754Z,21.33
